Time;durP1;ratioP1;P1;durP2;ratioP2;P2;SDS_P1;SDS_P2;PMS_P1;PMS_P2;Temp;Humidity;BMP_temperature;BMP_pressure;BME280_temperature;BME280_humidity;BME280_pressure;Samples;Min_cycle;Max_cycle;Signal;HPM_P1;HPM_P2
2022/02/18 00:02:23;;;;;;;22.17;3.47;;;;;;;7.65;87.88;98451.09;5063236;28;20025;-68
2022/02/18 00:04:48;;;;;;;20.98;2.92;;;;;;;7.58;88.65;98464.28;5063158;28;20055;-68
2022/02/18 00:07:14;;;;;;;19.92;3.10;;;;;;;7.60;88.30;98476.50;5063102;28;20313;-68
2022/02/18 00:09:39;;;;;;;28.98;3.65;;;;;;;7.60;88.79;98480.84;5063372;28;20067;-68
2022/02/18 00:12:05;;;;;;;19.58;3.78;;;;;;;7.69;88.09;98483.38;5063101;28;20031;-68
2022/02/18 00:14:30;;;;;;;39.97;4.20;;;;;;;7.70;87.44;98475.50;5063451;28;20339;-68
2022/02/18 00:16:56;;;;;;;26.80;3.50;;;;;;;7.73;87.90;98485.97;5062874;28;20044;-68
2022/02/18 00:19:21;;;;;;;18.52;1.92;;;;;;;7.78;87.70;98484.16;5063399;28;20037;-68
2022/02/18 00:21:49;;;;;;;41.45;3.58;;;;;;;7.78;87.60;98468.44;5063069;28;20071;-68
2022/02/18 00:24:16;;;;;;;22.25;3.33;;;;;;;7.81;87.71;98468.41;5063109;28;20213;-68
2022/02/18 00:26:42;;;;;;;30.73;2.75;;;;;;;7.82;88.21;98462.25;5064041;28;20280;-68
2022/02/18 00:29:07;;;;;;;31.17;3.88;;;;;;;7.88;87.34;98461.34;5063036;28;20025;-68
2022/02/18 00:31:33;;;;;;;23.90;3.40;;;;;;;7.84;87.22;98465.75;5062627;28;20048;-68
2022/02/18 00:33:58;;;;;;;17.77;3.22;;;;;;;7.85;87.94;98462.22;5063013;28;20075;-68
2022/02/18 00:36:24;;;;;;;27.17;3.67;;;;;;;7.93;87.00;98457.78;5063011;28;20021;-68
2022/02/18 00:38:49;;;;;;;20.70;2.00;;;;;;;7.95;87.44;98470.88;5062775;28;20269;-68
2022/02/18 00:41:15;;;;;;;20.73;2.95;;;;;;;7.89;87.14;98474.44;5062622;28;20024;-68
2022/02/18 00:43:41;;;;;;;17.15;1.92;;;;;;;7.89;87.70;98479.66;5060394;28;20264;-68
2022/02/18 00:46:06;;;;;;;15.27;2.60;;;;;;;7.88;87.25;98463.97;5062892;28;20036;-68
2022/02/18 00:48:32;;;;;;;17.00;2.72;;;;;;;7.88;86.60;98470.06;5062985;28;20063;-68
2022/02/18 00:50:57;;;;;;;24.30;2.92;;;;;;;7.86;87.08;98466.59;5063213;28;20035;-68
2022/02/18 00:53:23;;;;;;;34.63;4.60;;;;;;;7.82;87.55;98459.63;5063312;28;20091;-68
2022/02/18 00:55:50;;;;;;;16.92;3.08;;;;;;;7.82;87.86;98474.50;5063209;28;20032;-68
2022/02/18 00:58:16;;;;;;;10.25;2.13;;;;;;;7.76;87.04;98475.44;5063001;28;20053;-68
2022/02/18 01:00:42;;;;;;;20.70;3.22;;;;;;;7.74;88.22;98476.34;5061054;28;20036;-68
2022/02/18 01:03:07;;;;;;;18.00;2.50;;;;;;;7.68;87.94;98477.28;5063335;28;20033;-68
2022/02/18 01:05:32;;;;;;;18.50;3.30;;;;;;;7.66;87.64;98471.16;5063209;28;20024;-68
2022/02/18 01:07:58;;;;;;;22.00;2.90;;;;;;;7.66;87.82;98468.53;5066742;28;20031;-68
2022/02/18 01:10:23;;;;;;;23.95;2.53;;;;;;;7.65;87.88;98466.81;5066804;28;20044;-68
2022/02/18 01:12:49;;;;;;;24.33;2.20;;;;;;;7.66;87.62;98460.69;5066793;28;20332;-68
2022/02/18 01:15:14;;;;;;;29.90;3.22;;;;;;;7.72;87.50;98467.63;5066779;28;20134;-68
2022/02/18 01:17:40;;;;;;;16.58;3.20;;;;;;;7.70;87.76;98454.56;5066695;28;20032;-68
2022/02/18 01:20:08;;;;;;;32.28;3.03;;;;;;;7.69;88.32;98451.97;5066575;28;20021;-68
2022/02/18 01:22:33;;;;;;;13.98;2.58;;;;;;;7.71;87.90;98443.19;5066194;28;20035;-68
2022/02/18 01:24:59;;;;;;;14.70;2.63;;;;;;;7.75;87.54;98447.50;5065625;28;20025;-68
2022/02/18 01:27:24;;;;;;;18.90;2.95;;;;;;;7.73;87.05;98446.66;5065908;28;20075;-68
2022/02/18 01:29:50;;;;;;;13.65;2.20;;;;;;;7.81;86.52;98455.28;5065945;28;20017;-68
2022/02/18 01:32:15;;;;;;;31.65;4.07;;;;;;;7.77;87.55;98456.22;5065825;28;20024;-68
2022/02/18 01:34:41;;;;;;;17.17;2.50;;;;;;;7.81;86.80;98462.28;5065810;28;20263;-68
2022/02/18 01:37:07;;;;;;;15.93;2.83;;;;;;;7.82;87.11;98464.88;5065739;28;20039;-67
2022/02/18 01:39:33;;;;;;;24.05;2.78;;;;;;;7.82;86.60;98459.63;5065601;28;20020;-67
2022/02/18 01:41:59;;;;;;;21.88;3.33;;;;;;;7.87;87.57;98444.75;5066073;28;20351;-67
2022/02/18 01:44:40;;;;;;;20.63;2.63;;;;;;;7.97;86.89;98443.75;5065649;28;20047;-67
2022/02/18 01:47:06;;;;;;;24.63;3.17;;;;;;;7.94;87.25;98449.03;5065599;28;20021;-67
2022/02/18 01:49:32;;;;;;;25.02;3.20;;;;;;;7.95;86.91;98444.66;5065937;28;20216;-67
2022/02/18 01:51:58;;;;;;;18.70;2.72;;;;;;;7.93;87.37;98425.44;5064951;28;20021;-67
2022/02/18 01:54:24;;;;;;;28.27;3.00;;;;;;;7.93;86.66;98423.72;5064182;28;20016;-67
2022/02/18 01:56:49;;;;;;;19.38;3.13;;;;;;;7.89;87.17;98401.06;5064980;28;20427;-67
2022/02/18 01:59:15;;;;;;;16.80;3.90;;;;;;;7.92;86.83;98402.78;5064556;28;20090;-67
2022/02/18 02:01:41;;;;;;;12.10;2.47;;;;;;;7.94;87.21;98406.25;5069470;28;20020;-67
2022/02/18 02:04:07;;;;;;;17.60;2.40;;;;;;;7.89;87.04;98414.16;5069439;28;20021;-67
2022/02/18 02:06:33;;;;;;;17.10;2.08;;;;;;;7.97;87.05;98406.19;5065454;28;20031;-67
2022/02/18 02:08:59;;;;;;;23.75;2.25;;;;;;;7.95;87.03;98406.22;5065000;28;20027;-67
2022/02/18 02:11:24;;;;;;;19.38;2.35;;;;;;;7.93;86.59;98402.75;5063454;28;20029;-67
2022/02/18 02:13:50;;;;;;;23.88;3.35;;;;;;;7.97;86.41;98396.56;5065038;28;20063;-67
2022/02/18 02:16:16;;;;;;;18.55;2.50;;;;;;;7.99;86.02;98393.94;5065020;28;20062;-67
2022/02/18 02:18:44;;;;;;;21.27;2.97;;;;;;;7.98;85.67;98377.34;5067167;28;20044;-67
2022/02/18 02:21:13;;;;;;;15.63;2.47;;;;;;;8.01;85.81;98379.91;5061864;28;20054;-67
2022/02/18 02:23:39;;;;;;;30.77;3.22;;;;;;;8.11;84.95;98384.19;5064939;28;20063;-67
2022/02/18 02:26:10;;;;;;;16.45;3.03;;;;;;;8.11;85.14;98389.41;5065390;28;20228;-67
2022/02/18 02:28:36;;;;;;;26.15;2.65;;;;;;;8.10;85.18;98371.94;5065372;28;20027;-67
2022/02/18 02:31:01;;;;;;;22.70;3.45;;;;;;;8.10;84.77;98377.19;5064909;28;20024;-67
2022/02/18 02:33:27;;;;;;;31.30;3.30;;;;;;;8.12;85.45;98364.94;5064359;28;20336;-67
2022/02/18 02:35:52;;;;;;;21.17;2.63;;;;;;;8.17;85.20;98355.22;5064874;28;20016;-67
2022/02/18 02:38:19;;;;;;;15.77;2.58;;;;;;;8.16;85.37;98355.25;5064312;28;20021;-67
2022/02/18 02:40:45;;;;;;;20.15;2.42;;;;;;;8.16;85.26;98340.41;5064691;28;20033;-67
2022/02/18 02:43:10;;;;;;;17.88;2.95;;;;;;;8.15;84.61;98328.19;5064886;28;20017;-67
2022/02/18 02:45:36;;;;;;;14.93;1.90;;;;;;;8.14;85.15;98315.94;5064353;28;20071;-67
2022/02/18 02:48:01;;;;;;;15.88;2.75;;;;;;;8.09;85.45;98307.31;5064246;28;20177;-67
2022/02/18 02:50:27;;;;;;;19.65;2.97;;;;;;;8.06;84.62;98301.22;5064479;28;20013;-67
2022/02/18 02:52:52;;;;;;;15.27;1.98;;;;;;;8.04;85.44;98298.63;5064426;28;20142;-68
2022/02/18 02:55:19;;;;;;;16.80;2.53;;;;;;;8.05;85.47;98291.66;5064225;28;20024;-68
2022/02/18 02:57:45;;;;;;;24.70;2.92;;;;;;;8.03;85.36;98291.66;5063924;28;20020;-68
2022/02/18 03:00:12;;;;;;;17.63;2.60;;;;;;;8.06;85.40;98296.88;5065030;28;20070;-68
2022/02/18 03:02:38;;;;;;;22.30;2.35;;;;;;;8.03;85.64;98296.91;5060283;28;20025;-68
2022/02/18 03:05:04;;;;;;;10.93;2.00;;;;;;;7.97;85.96;98297.00;5064752;28;20029;-68
2022/02/18 03:07:30;;;;;;;16.00;2.80;;;;;;;7.94;85.39;98299.66;5063776;28;20207;-68
2022/02/18 03:09:55;;;;;;;22.02;2.67;;;;;;;7.92;85.60;98298.84;5063883;28;20017;-68
2022/02/18 03:12:21;;;;;;;20.10;2.47;;;;;;;7.89;84.98;98298.88;5063961;28;20076;-68
2022/02/18 03:14:46;;;;;;;22.50;3.13;;;;;;;7.86;85.24;98293.69;5064012;28;20021;-68
2022/02/18 03:17:12;;;;;;;16.73;2.63;;;;;;;7.86;85.50;98284.94;5063640;28;20024;-68
2022/02/18 03:19:37;;;;;;;11.68;1.98;;;;;;;7.90;85.76;98274.41;5064343;28;20021;-68
2022/02/18 03:22:04;;;;;;;19.15;2.63;;;;;;;7.91;86.03;98276.13;5064292;28;20020;-68
2022/02/18 03:24:30;;;;;;;16.55;2.10;;;;;;;7.83;85.92;98262.28;5064220;28;20070;-68
2022/02/18 03:26:56;;;;;;;13.18;1.85;;;;;;;7.82;86.26;98252.66;5064259;28;20029;-68
2022/02/18 03:29:21;;;;;;;14.20;2.35;;;;;;;7.86;85.68;98246.50;5063792;28;20024;-68
2022/02/18 03:31:46;;;;;;;18.65;3.17;;;;;;;7.84;85.46;98247.41;5064225;28;20059;-68
2022/02/18 03:34:13;;;;;;;12.18;2.25;;;;;;;7.82;86.68;98243.97;5064190;28;20024;-68
2022/02/18 03:36:38;;;;;;;30.35;3.22;;;;;;;7.82;85.68;98238.72;5064134;28;20047;-68
2022/02/18 03:39:04;;;;;;;21.40;2.83;;;;;;;7.80;86.62;98240.47;5064001;28;20029;-68
2022/02/18 03:41:30;;;;;;;21.98;3.33;;;;;;;7.77;87.00;98236.16;5064049;28;20036;-68
2022/02/18 03:44:00;;;;;;;24.55;3.05;;;;;;;7.75;86.38;98222.22;5064277;28;20091;-68
2022/02/18 03:46:25;;;;;;;17.65;2.60;;;;;;;7.86;85.98;98214.19;5064015;28;20105;-68
2022/02/18 03:48:50;;;;;;;13.65;2.47;;;;;;;7.89;85.78;98207.16;5063947;28;20325;-68
2022/02/18 03:51:16;;;;;;;18.52;2.80;;;;;;;7.94;85.59;98207.94;5063978;28;20048;-68
2022/02/18 03:53:43;;;;;;;15.73;2.08;;;;;;;7.94;85.49;98207.94;5063993;28;20029;-68
2022/02/18 03:56:09;;;;;;;16.88;2.55;;;;;;;7.97;85.72;98207.03;5063404;28;20025;-68
2022/02/18 03:58:34;;;;;;;11.35;2.90;;;;;;;7.94;86.68;98202.69;5062948;28;20055;-68
2022/02/18 04:01:00;;;;;;;22.90;3.03;;;;;;;7.90;87.32;98205.41;5061930;28;20032;-68
2022/02/18 04:03:25;;;;;;;20.48;2.97;;;;;;;7.94;86.23;98199.25;5063168;28;20025;-68
2022/02/18 04:05:50;;;;;;;21.30;2.60;;;;;;;7.89;86.55;98198.44;5063244;28;20045;-68
2022/02/18 04:08:16;;;;;;;10.48;2.03;;;;;;;7.90;86.79;98195.78;5062922;28;20025;-68
2022/02/18 04:10:41;;;;;;;15.55;2.03;;;;;;;7.94;86.53;98202.69;5061425;28;20320;-68
2022/02/18 04:13:07;;;;;;;15.07;1.63;;;;;;;7.95;86.91;98206.19;5053081;28;20021;-68
2022/02/18 04:15:33;;;;;;;16.00;1.73;;;;;;;7.96;87.05;98200.06;5063098;28;20374;-68
2022/02/18 04:17:58;;;;;;;12.75;2.35;;;;;;;7.99;87.07;98198.28;5062993;28;20063;-68
2022/02/18 04:20:24;;;;;;;16.67;2.47;;;;;;;8.01;87.21;98191.22;5062816;28;20032;-68
2022/02/18 04:22:49;;;;;;;9.82;1.88;;;;;;;8.06;86.44;98180.66;5063353;28;20240;-68
2022/02/18 04:25:15;;;;;;;12.52;1.92;;;;;;;8.06;87.63;98175.44;5062880;28;20295;-68
2022/02/18 04:27:40;;;;;;;10.55;2.00;;;;;;;8.06;86.85;98171.06;5062858;28;21273;-68
2022/02/18 04:30:06;;;;;;;15.70;1.83;;;;;;;8.10;86.97;98167.50;5063077;28;20251;-68
2022/02/18 04:32:32;;;;;;;12.75;1.88;;;;;;;8.13;86.71;98156.97;5062752;28;20017;-68
2022/02/18 04:34:58;;;;;;;10.20;1.75;;;;;;;8.16;86.31;98159.53;5063117;28;20092;-68
2022/02/18 04:37:23;;;;;;;28.20;2.50;;;;;;;8.25;86.56;98162.03;5063056;28;20067;-68
2022/02/18 04:39:49;;;;;;;20.52;2.63;;;;;;;8.27;86.65;98143.66;5062809;28;20039;-68
2022/02/18 04:42:15;;;;;;;15.02;3.92;;;;;;;8.25;87.06;98133.19;5065495;28;20021;-68
2022/02/18 04:44:40;;;;;;;20.42;3.35;;;;;;;8.27;87.54;98123.56;5066866;28;20336;-68
2022/02/18 04:47:06;;;;;;;19.33;3.92;;;;;;;8.28;87.53;98122.66;5066736;28;20025;-68
2022/02/18 04:49:31;;;;;;;15.70;3.33;;;;;;;8.32;87.91;98126.94;5066461;28;20047;-68
2022/02/18 04:51:57;;;;;;;11.48;2.92;;;;;;;8.36;87.67;98106.78;5066706;28;20020;-68
2022/02/18 04:54:22;;;;;;;15.48;2.33;;;;;;;8.39;88.50;98115.44;5066647;28;20021;-68
2022/02/18 04:56:49;;;;;;;18.10;2.85;;;;;;;8.40;88.12;98106.69;5066534;28;20025;-68
2022/02/18 04:59:16;;;;;;;7.68;2.05;;;;;;;8.38;88.37;98100.59;5066589;28;20340;-68
2022/02/18 05:01:42;;;;;;;27.88;2.90;;;;;;;8.37;89.04;98098.88;5066584;28;20028;-68
2022/02/18 05:04:08;;;;;;;11.55;2.22;;;;;;;8.37;89.41;98098.88;5066468;28;20106;-68
2022/02/18 05:06:33;;;;;;;22.42;3.30;;;;;;;8.40;89.30;98072.59;5064147;28;20025;-68
2022/02/18 05:08:58;;;;;;;29.27;2.90;;;;;;;8.44;90.23;98082.13;5065477;28;20190;-68
2022/02/18 05:11:24;;;;;;;25.10;2.42;;;;;;;8.44;91.01;98078.63;5065450;28;20021;-68
2022/02/18 05:13:49;;;;;;;7.55;1.88;;;;;;;8.40;91.72;98067.38;5065246;28;20020;-68
2022/02/18 05:16:15;;;;;;;17.67;3.15;;;;;;;8.43;90.66;98067.31;5064828;28;20023;-68
2022/02/18 05:18:40;;;;;;;14.38;2.53;;;;;;;8.41;90.97;98071.69;5064751;28;20055;-68
2022/02/18 05:21:06;;;;;;;14.38;2.42;;;;;;;8.46;91.28;98072.50;5068549;28;20048;-68
2022/02/18 05:23:32;;;;;;;16.60;2.63;;;;;;;8.43;91.82;98062.06;5065167;28;20052;-68
2022/02/18 05:25:57;;;;;;;15.90;2.15;;;;;;;8.45;92.24;98057.63;5064904;28;20055;-68
2022/02/18 05:28:23;;;;;;;12.60;2.38;;;;;;;8.48;92.03;98060.19;5063784;28;20013;-68
2022/02/18 05:30:48;;;;;;;16.23;2.75;;;;;;;8.52;92.10;98056.59;5064896;28;20040;-68
2022/02/18 05:33:14;;;;;;;11.77;2.42;;;;;;;8.50;93.47;98053.16;5064663;28;20088;-68
2022/02/18 05:35:40;;;;;;;15.80;2.20;;;;;;;8.50;94.19;98047.03;5065163;28;20359;-68
2022/02/18 05:38:06;;;;;;;13.25;2.22;;;;;;;8.49;95.03;98046.16;5065316;28;20025;-67
2022/02/18 05:40:32;;;;;;;10.35;2.22;;;;;;;8.52;95.64;98025.13;5065471;28;20091;-67
2022/02/18 05:42:57;;;;;;;19.73;2.05;;;;;;;8.54;95.35;98025.09;5064685;28;20025;-67
2022/02/18 05:45:23;;;;;;;11.23;1.65;;;;;;;8.55;95.97;98009.31;5064825;28;20056;-67
2022/02/18 05:47:51;;;;;;;21.40;3.22;;;;;;;8.54;96.83;98007.63;5064791;28;20029;-67
2022/02/18 05:50:17;;;;;;;17.60;2.67;;;;;;;8.57;96.87;98007.56;5065069;28;20337;-67
2022/02/18 05:52:44;;;;;;;14.90;2.40;;;;;;;8.60;97.72;98004.88;5065048;28;20021;-67
2022/02/18 05:55:10;;;;;;;20.27;2.40;;;;;;;8.53;99.25;98000.66;5065553;28;20025;-67
2022/02/18 05:57:35;;;;;;;18.05;3.15;;;;;;;8.55;99.98;97988.34;5066134;28;20035;-67
2022/02/18 06:00:01;;;;;;;13.65;1.95;;;;;;;8.52;100.00;97977.91;5065989;28;20286;-67
2022/02/18 06:02:26;;;;;;;15.10;2.55;;;;;;;8.53;100.00;97932.47;5049176;28;20025;-67
2022/02/18 06:04:52;;;;;;;12.93;2.47;;;;;;;8.51;100.00;98044.41;5046075;28;20376;-67
2022/02/18 06:07:17;;;;;;;10.88;1.55;;;;;;;8.54;100.00;98012.84;5046003;28;20025;-67
2022/02/18 06:09:46;;;;;;;20.45;2.35;;;;;;;8.55;100.00;97962.13;5064328;28;20044;-67
2022/02/18 06:12:11;;;;;;;14.95;2.35;;;;;;;8.61;100.00;97946.25;5086024;28;20050;-67
2022/02/18 06:14:37;;;;;;;7.82;1.42;;;;;;;8.62;100.00;97948.00;5083260;28;20028;-67
2022/02/18 06:17:05;;;;;;;12.35;1.42;;;;;;;8.60;100.00;97969.88;5065398;28;20043;-67
2022/02/18 06:19:32;;;;;;;12.60;2.30;;;;;;;8.60;100.00;97941.03;5065500;28;20359;-67
2022/02/18 06:21:57;;;;;;;7.38;1.60;;;;;;;8.60;100.00;97931.41;5065589;28;20261;-67
2022/02/18 06:24:23;;;;;;;8.98;1.70;;;;;;;8.56;100.00;97937.66;5065656;28;20036;-67
2022/02/18 06:26:48;;;;;;;8.10;1.75;;;;;;;8.58;100.00;97930.59;5065544;28;20025;-67
2022/02/18 06:29:14;;;;;;;11.18;1.60;;;;;;;8.58;100.00;97935.81;5065560;28;20028;-67
2022/02/18 06:31:39;;;;;;;8.65;1.35;;;;;;;8.62;100.00;97926.13;5071013;28;20078;-67
2022/02/18 06:34:05;;;;;;;5.47;1.15;;;;;;;8.59;100.00;97920.97;5072535;28;20025;-67
2022/02/18 06:36:30;;;;;;;7.38;1.50;;;;;;;8.62;100.00;97937.50;5065846;28;20028;-67
2022/02/18 06:38:56;;;;;;;3.45;0.95;;;;;;;8.67;100.00;97914.63;5065283;28;20321;-67
2022/02/18 06:41:21;;;;;;;1.90;0.90;;;;;;;8.82;100.00;97914.28;5064427;28;20054;-67
2022/02/18 06:43:47;;;;;;;5.28;1.35;;;;;;;8.93;100.00;97921.91;5065369;28;20086;-67
2022/02/18 06:46:13;;;;;;;4.78;1.17;;;;;;;8.99;100.00;97929.63;5064265;28;20021;-67
2022/02/18 06:48:38;;;;;;;3.83;1.27;;;;;;;9.00;100.00;97893.72;5065048;28;20037;-67
2022/02/18 06:51:05;;;;;;;6.85;0.93;;;;;;;9.16;100.00;97897.69;5065606;28;20025;-67
2022/02/18 06:53:31;;;;;;;4.82;1.30;;;;;;;9.16;100.00;97895.94;5064901;28;20021;-67
2022/02/18 06:55:56;;;;;;;2.20;0.93;;;;;;;9.24;100.00;97906.25;5066242;28;20392;-67
2022/02/18 06:58:22;;;;;;;4.90;0.90;;;;;;;9.28;100.00;97897.38;5066606;28;20360;-67
2022/02/18 07:00:51;;;;;;;1.77;0.85;;;;;;;9.31;100.00;97897.31;5066588;28;20028;-67
2022/02/18 07:03:17;;;;;;;6.82;0.98;;;;;;;9.31;100.00;97892.06;5066881;28;20025;-67
2022/02/18 07:05:42;;;;;;;7.30;1.08;;;;;;;9.35;100.00;97893.69;5066657;28;20032;-67
2022/02/18 07:08:08;;;;;;;2.08;0.98;;;;;;;9.35;100.00;97896.31;5066901;28;20032;-67
2022/02/18 07:10:33;;;;;;;5.18;1.10;;;;;;;9.37;100.00;97892.78;5066885;28;20079;-67
2022/02/18 07:12:59;;;;;;;4.38;1.70;;;;;;;9.46;100.00;97900.38;5066680;28;20020;-67
2022/02/18 07:15:24;;;;;;;6.93;1.65;;;;;;;9.58;100.00;97886.06;5066247;28;20025;-67
2022/02/18 07:17:50;;;;;;;4.80;1.40;;;;;;;9.60;100.00;97881.63;5066255;28;20070;-67
2022/02/18 07:20:17;;;;;;;4.97;1.58;;;;;;;9.59;100.00;97883.38;5066325;28;20029;-67
2022/02/18 07:22:43;;;;;;;6.35;1.45;;;;;;;9.61;100.00;97872.84;5066033;28;20088;-67
2022/02/18 07:25:10;;;;;;;3.20;1.10;;;;;;;9.65;100.00;97887.63;5066151;28;20029;-67
2022/02/18 07:27:36;;;;;;;4.15;1.55;;;;;;;9.71;100.00;97882.22;5066561;28;20056;-67
2022/02/18 07:30:03;;;;;;;4.15;1.08;;;;;;;9.77;100.00;97863.63;5066232;28;20367;-67
2022/02/18 07:32:28;;;;;;;4.82;1.30;;;;;;;9.81;100.00;97860.03;5066235;28;20021;-67
2022/02/18 07:34:54;;;;;;;3.63;1.13;;;;;;;9.82;100.00;97864.38;5066009;28;20044;-67
2022/02/18 07:37:19;;;;;;;3.25;1.33;;;;;;;9.84;100.00;97850.28;5066002;28;20343;-67
2022/02/18 07:39:44;;;;;;;3.63;1.33;;;;;;;9.87;100.00;97851.97;5066071;28;20021;-67
2022/02/18 07:42:10;;;;;;;3.17;1.08;;;;;;;9.93;100.00;97828.97;5065825;28;20025;-67
2022/02/18 07:44:36;;;;;;;7.15;1.48;;;;;;;9.96;100.00;97862.19;5065784;28;20062;-67
2022/02/18 07:47:02;;;;;;;3.97;1.45;;;;;;;10.00;100.00;97821.78;5066080;28;20035;-67
2022/02/18 07:49:27;;;;;;;4.88;0.90;;;;;;;10.04;100.00;97818.16;5066169;28;20047;-67
2022/02/18 07:51:53;;;;;;;4.07;1.70;;;;;;;10.11;100.00;97819.72;5065997;28;20022;-67
2022/02/18 07:54:18;;;;;;;3.63;1.77;;;;;;;10.15;100.00;97816.06;5066051;28;20039;-67
2022/02/18 07:56:44;;;;;;;5.10;1.42;;;;;;;10.12;100.00;97803.91;5066210;28;20025;-67
2022/02/18 07:59:10;;;;;;;2.45;1.23;;;;;;;10.19;100.00;97801.94;5065857;28;20044;-67
2022/02/18 08:01:35;;;;;;;2.50;1.20;;;;;;;10.26;100.00;97785.94;5057878;28;20080;-67
2022/02/18 08:04:01;;;;;;;4.43;1.20;;;;;;;10.32;100.00;97798.03;5046032;28;20035;-67
2022/02/18 08:06:26;;;;;;;9.90;1.65;;;;;;;10.35;100.00;97813.72;5045942;28;20049;-67
2022/02/18 08:08:53;;;;;;;6.35;1.30;;;;;;;10.36;100.00;97765.44;5046131;28;20084;-67
2022/02/18 08:11:19;;;;;;;3.42;1.00;;;;;;;10.41;100.00;97803.00;5045885;28;20099;-67
2022/02/18 08:13:45;;;;;;;2.30;1.20;;;;;;;10.46;100.00;97786.16;5046124;28;20021;-67
2022/02/18 08:16:13;;;;;;;4.15;1.42;;;;;;;10.46;100.00;97769.50;5048642;28;20025;-67
2022/02/18 08:18:39;;;;;;;2.38;1.00;;;;;;;10.65;100.00;97767.97;5049940;28;20036;-67
2022/02/18 08:21:05;;;;;;;2.40;1.08;;;;;;;10.69;100.00;97766.97;5050204;28;20021;-67
2022/02/18 08:23:30;;;;;;;8.90;1.67;;;;;;;10.73;100.00;97797.56;5049979;28;20045;-67
2022/02/18 08:25:56;;;;;;;2.97;1.10;;;;;;;10.80;100.00;97797.28;5049712;28;20080;-67
2022/02/18 08:28:21;;;;;;;11.23;1.40;;;;;;;10.94;100.00;97788.91;5049639;28;20052;-67
2022/02/18 08:30:48;;;;;;;4.95;1.20;;;;;;;10.97;100.00;97783.53;5049511;28;20025;-67
2022/02/18 08:33:13;;;;;;;4.93;1.30;;;;;;;11.02;100.00;97790.38;5049948;28;20025;-67
2022/02/18 08:35:39;;;;;;;6.32;1.38;;;;;;;11.00;100.00;97793.97;5049528;28;20051;-67
2022/02/18 08:38:06;;;;;;;3.60;1.02;;;;;;;11.08;100.00;97776.16;5049627;28;20214;-67
2022/02/18 08:40:33;;;;;;;5.03;0.90;;;;;;;11.20;100.00;97780.97;5049351;28;20036;-67
2022/02/18 08:42:59;;;;;;;1.90;0.90;;;;;;;11.28;100.00;97762.25;5049385;28;20035;-67
2022/02/18 08:45:25;;;;;;;4.97;1.50;;;;;;;11.32;100.00;97754.19;5049204;28;20081;-67
2022/02/18 08:47:50;;;;;;;6.40;0.85;;;;;;;11.26;100.00;97757.03;5049115;28;20087;-68
2022/02/18 08:50:16;;;;;;;2.97;1.10;;;;;;;11.25;100.00;97757.97;5049270;28;20048;-68
2022/02/18 08:52:45;;;;;;;4.78;1.30;;;;;;;11.25;100.00;97752.69;5049343;28;20055;-68
2022/02/18 08:55:14;;;;;;;3.08;1.02;;;;;;;11.31;100.00;97748.97;5049178;28;20021;-68
2022/02/18 08:57:40;;;;;;;5.60;1.42;;;;;;;11.40;100.00;97760.06;5049324;28;20263;-68
2022/02/18 09:00:08;;;;;;;5.20;1.40;;;;;;;11.35;100.00;97748.81;5048994;28;20325;-68
2022/02/18 09:02:38;;;;;;;7.18;1.00;;;;;;;11.48;100.00;97750.09;5049780;28;20021;-68
2022/02/18 09:05:05;;;;;;;5.55;1.50;;;;;;;11.66;99.77;97753.84;5068961;28;20078;-68
2022/02/18 09:07:31;;;;;;;4.72;1.27;;;;;;;11.72;99.51;97749.22;5068951;28;20028;-68
2022/02/18 09:09:57;;;;;;;3.40;1.00;;;;;;;11.73;99.16;97756.19;5069042;28;20047;-68
2022/02/18 09:12:23;;;;;;;3.80;1.10;;;;;;;11.70;98.98;97753.66;5068841;28;20223;-68
2022/02/18 09:14:49;;;;;;;1.92;1.08;;;;;;;11.63;99.06;97752.19;5068964;28;20020;-68
2022/02/18 09:17:15;;;;;;;6.43;1.33;;;;;;;11.81;98.91;97751.50;5068714;28;20028;-68
2022/02/18 09:19:40;;;;;;;1.67;0.65;;;;;;;11.97;97.90;97734.19;5068366;28;20021;-68
2022/02/18 09:22:06;;;;;;;5.63;0.98;;;;;;;12.07;97.63;97740.81;5068782;28;20268;-68
2022/02/18 09:24:32;;;;;;;2.05;1.10;;;;;;;12.07;96.95;97730.25;5068415;28;20343;-68
2022/02/18 09:26:57;;;;;;;8.57;1.65;;;;;;;12.02;96.83;97742.75;5068132;28;20021;-68
2022/02/18 09:29:23;;;;;;;1.15;0.55;;;;;;;11.97;97.47;97739.44;5068926;28;20063;-68
2022/02/18 09:31:48;;;;;;;6.78;1.10;;;;;;;11.91;97.39;97738.81;5068522;28;20043;-68
2022/02/18 09:34:14;;;;;;;1.63;0.47;;;;;;;11.87;98.02;97722.25;5068697;28;20025;-68
2022/02/18 09:36:39;;;;;;;4.50;0.70;;;;;;;11.89;98.25;97715.16;5068615;28;20221;-68
2022/02/18 09:39:06;;;;;;;2.08;0.82;;;;;;;11.81;98.09;97714.59;5068294;28;20224;-68
2022/02/18 09:41:34;;;;;;;1.60;0.60;;;;;;;11.84;98.14;97714.47;5068044;28;20056;-68
2022/02/18 09:44:01;;;;;;;1.58;0.60;;;;;;;11.98;98.04;97693.69;5068380;28;20025;-68
2022/02/18 09:46:27;;;;;;;5.82;0.93;;;;;;;12.02;97.65;97694.44;5068264;28;20040;-68
2022/02/18 09:48:54;;;;;;;0.98;0.55;;;;;;;12.06;97.34;97691.59;5068499;28;20021;-68
2022/02/18 09:51:20;;;;;;;2.70;0.80;;;;;;;12.42;96.80;97678.69;5068261;28;20031;-68
2022/02/18 09:53:46;;;;;;;4.75;0.60;;;;;;;12.43;96.25;97681.25;5068126;28;20025;-68
2022/02/18 09:56:15;;;;;;;3.33;1.23;;;;;;;12.48;95.58;97679.31;5068022;28;20092;-68
2022/02/18 09:58:41;;;;;;;1.20;0.77;;;;;;;12.50;95.25;97672.16;5067889;28;20068;-68
2022/02/18 10:01:07;;;;;;;1.98;0.60;;;;;;;12.50;95.04;97677.44;5066975;28;20021;-68
2022/02/18 10:03:32;;;;;;;3.42;0.70;;;;;;;12.60;95.32;97672.66;5067910;28;20025;-68
2022/02/18 10:05:59;;;;;;;3.85;0.90;;;;;;;12.68;95.90;97662.59;5067915;28;20027;-68
2022/02/18 10:08:25;;;;;;;7.50;0.95;;;;;;;12.76;95.27;97653.41;5067777;28;20029;-68
2022/02/18 10:11:05;;;;;;;1.55;0.60;;;;;;;13.02;93.55;97639.97;5067469;28;20024;-68
2022/02/18 10:13:40;;;;;;;2.45;0.98;;;;;;;13.06;93.42;97647.78;5067295;28;20031;-68
2022/02/18 10:16:30;;;;;;;6.13;1.13;;;;;;;13.33;92.18;97630.66;5067622;28;20092;-68
2022/02/18 10:19:00;;;;;;;9.02;0.93;;;;;;;13.29;90.97;97637.84;5067678;28;20104;-68
2022/02/18 10:21:30;;;;;;;1.77;0.60;;;;;;;13.98;89.05;97639.81;5067479;28;20343;-68
2022/02/18 10:24:15;;;;;;;2.42;0.82;;;;;;;14.34;87.52;97647.78;5067551;28;20194;-68
2022/02/18 10:26:44;;;;;;;3.70;0.60;;;;;;;14.91;86.04;97634.22;5067142;28;20024;-68
2022/02/18 10:29:17;;;;;;;3.33;0.75;;;;;;;15.15;84.89;97638.22;5067105;28;20021;-68
2022/02/18 10:31:43;;;;;;;5.60;0.60;;;;;;;14.77;83.89;97634.94;5067342;28;20025;-68
2022/02/18 10:34:10;;;;;;;2.75;0.90;;;;;;;14.10;85.76;97627.78;5067189;28;20045;-68
2022/02/18 10:36:44;;;;;;;1.60;0.75;;;;;;;13.74;86.55;97630.44;5066985;28;20032;-68
2022/02/18 10:39:30;;;;;;;4.55;0.95;;;;;;;13.54;88.56;97627.03;5066031;28;20025;-68
2022/02/18 10:41:59;;;;;;;2.20;0.70;;;;;;;13.46;88.11;97619.44;5067091;28;20029;-68
2022/02/18 10:44:34;;;;;;;1.63;0.63;;;;;;;12.97;89.82;97618.16;5066976;28;20021;-68
2022/02/18 10:47:05;;;;;;;1.55;0.60;;;;;;;12.59;93.01;97629.53;5067362;28;20025;-68
2022/02/18 10:49:33;;;;;;;2.22;0.50;;;;;;;12.29;95.41;97622.94;5067215;28;20048;-68
2022/02/18 10:52:03;;;;;;;1.58;0.52;;;;;;;12.15;97.47;97621.81;5067066;28;20049;-68
2022/02/18 10:54:31;;;;;;;0.98;0.45;;;;;;;12.04;98.71;97619.59;5067295;28;20029;-68
2022/02/18 10:57:29;;;;;;;0.40;0.40;;;;;;;11.92;100.00;97604.28;5067424;28;20088;-68
2022/02/18 10:59:57;;;;;;;2.63;0.82;;;;;;;11.90;100.00;97600.84;5054854;28;20033;-68
2022/02/18 11:02:40;;;;;;;0.93;0.50;;;;;;;11.81;100.00;97595.09;5055055;28;20017;-68
2022/02/18 11:05:20;;;;;;;0.90;0.57;;;;;;;11.81;100.00;97585.41;5046835;28;20225;-68
2022/02/18 11:07:45;;;;;;;3.65;1.42;;;;;;;11.79;100.00;97581.97;5046944;28;20321;-68
2022/02/18 11:10:30;;;;;;;3.00;0.70;;;;;;;11.82;100.00;97595.03;5046767;28;20081;-68
2022/02/18 11:12:56;;;;;;;6.30;1.00;;;;;;;11.91;100.00;97591.16;5065097;28;20035;-68
2022/02/18 11:15:22;;;;;;;1.45;0.60;;;;;;;12.11;100.00;97593.81;5066532;28;20044;-68
2022/02/18 11:17:50;;;;;;;3.50;1.02;;;;;;;12.15;100.00;97575.16;5066042;28;20033;-68
2022/02/18 11:20:15;;;;;;;3.60;0.95;;;;;;;12.40;99.88;97560.00;5066184;28;20025;-68
2022/02/18 11:22:44;;;;;;;1.30;0.77;;;;;;;12.59;99.47;97575.88;5066462;28;20218;-68
2022/02/18 11:25:11;;;;;;;6.38;0.90;;;;;;;12.71;98.01;97576.22;5066474;28;20088;-68
2022/02/18 11:27:37;;;;;;;2.65;0.98;;;;;;;12.79;97.12;97550.31;5065264;28;20028;-68
2022/02/18 11:30:03;;;;;;;4.30;1.10;;;;;;;13.06;96.41;97552.69;5065294;28;20021;-68